Aviation Digital Data Service (ADDS)

Output produced by METARs form (2352 UTC 30 November 2022)
found at http://aviationweather.gov/metar/data/
 
KPUB 302340Z 0100/0124 30006KT P6SM FEW150 FEW250 
     FM010600 28005KT P6SM FEW250 
     FM011900 24010KT P6SM FEW250